Missoula, MT

3:11 PM MDT on September 01, 2014 (GMT -0600)
Missoula International | Change Station
CLOSE
Current Station
Airport
Location: Missoula,
Elevation: 3189 ft
Nearby Weather Stations

Elev 3189 ft 46.92 °N, 114.09 °W | Updated 18 minutes ago

Mostly Cloudy
Mostly Cloudy
67 °F
Feels Like 67 °F
N
6
Wind Variable Wind from Variable

Today
High -- | Low -- °F
--% Chance of Precip.
Yesterday
High -- | Low -- °F
Precip. -- in
6:55 AM 8:15 PM
Waxing Crescent, 44% visible
Pressure 30.02 in
Visibility 10.0 miles
Clouds Mostly Cloudy 7500 ft
Dew Point 37 °F
Humidity 33%
Rainfall 0.00 in
Snow Depth 0 in
UV 4 out of 12
Pollen 7.10 out of 12
Air Quality Not available.
Flu Activity Not available.
METAR KMSO 012053Z VRB05KT 10SM BKN075 19/03 A3003 RMK AO2 SLP164 T01940028 56014 $

More Conditions Fewer Conditions

Pressure 30.02 in
Visibility 10.0 miles
Clouds Mostly Cloudy 7500 ft
Dew Point 37 °F
Humidity 33%
Rainfall 0.00 in
Snow Depth 0 in
UV 4 out of 12
Pollen 7.10 out of 12
Air Quality Not available.
Flu Activity Not available.
METAR KMSO 012053Z VRB05KT 10SM BKN075 19/03 A3003 RMK AO2 SLP164 T01940028 56014 $

More Conditions Fewer Conditions

10-Day Weather Forecast

Almanac

Astronomy

Sep. 01, 2014 Rise Set
Actual Time 6:55 AM MDT 8:15 PM MDT
Civil Twilight 6:24 AM MDT 8:47 PM MDT
Nautical Twilight 5:46 AM MDT 9:24 PM MDT
Astronomical Twilight 5:05 AM MDT 10:05 PM MDT
Moon 2:11 PM MDT 11:53 PM MDT
Length of Visible Light 14h 22m
Length of Day
13h 19m
Tomorrow will be 3m 15s shorter.
Waxing Crescent, 44% of the Moon is Illuminated
Today
Waxing Crescent
Sep 2
First Quarter
Sep 8
Full
Sep 15
Last Quarter
Sep 24
New

Today's Extremes

State Highs State Lows

Community

WunderPhotos

Upload Photos

1,749,409 photos uploaded!

WunderBlogs® & News

Nearby

Snow Depth

Station Depth Elevation
Stuart Mountain 0 in 7400 ft
Sleeping Woman 0 in 6150 ft
North Fork Jocko 0 in 6330 ft
Lubrecht Flume 0 in 4680 ft
Kraft Creek 0 in 4750 ft

Earthquake Activity

City Distance Mag. Time & Date
No recent earthquake activity has been reported nearby.
Minimum magnitude displayed is 2.5.

Coastal Water Temperatures

Place Temperature
No Stations Reporting

Nearby Weather Stations